createdAt,value
2022-08-01T00:01:47.102Z,90.90
2022-08-01T00:04:17.333Z,90.90
2022-08-01T00:06:46.794Z,90.90
2022-08-01T00:09:23.660Z,91.10
2022-08-01T00:12:08.128Z,91.20
2022-08-01T00:14:36.310Z,91.30
2022-08-01T00:17:07.416Z,91.50
2022-08-01T00:22:32.829Z,91.50
2022-08-01T00:25:01.450Z,91.70
2022-08-01T00:27:29.430Z,91.80
2022-08-01T00:30:13.160Z,91.70
2022-08-01T00:32:45.624Z,91.90
2022-08-01T00:35:14.328Z,91.90
2022-08-01T00:37:45.266Z,92.10
2022-08-01T00:40:13.230Z,92.10
2022-08-01T00:42:43.837Z,92.20
2022-08-01T00:45:12.768Z,92.30
2022-08-01T00:47:41.370Z,92.40
2022-08-01T00:50:10.652Z,92.40
2022-08-01T00:52:40.606Z,92.50
2022-08-01T00:55:13.207Z,92.70
2022-08-01T00:58:03.655Z,92.70
2022-08-01T01:00:33.750Z,92.80
2022-08-01T01:03:09.756Z,92.90
2022-08-01T01:05:47.422Z,92.90
2022-08-01T01:08:24.446Z,93.00
2022-08-01T01:11:00.004Z,93.00
2022-08-01T01:13:37.106Z,93.00
2022-08-01T01:16:21.482Z,93.30
2022-08-01T01:18:53.566Z,93.20
2022-08-01T01:21:44.553Z,93.20
2022-08-01T01:24:21.437Z,93.40
2022-08-01T01:26:55.435Z,93.60
2022-08-01T01:29:29.358Z,93.60
2022-08-01T01:32:04.650Z,93.70
2022-08-01T01:34:37.502Z,93.70
2022-08-01T01:37:10.210Z,93.70
2022-08-01T01:39:39.685Z,93.80
2022-08-01T01:42:13.482Z,93.90
2022-08-01T01:44:45.146Z,94.00
2022-08-01T01:47:14.764Z,94.10
2022-08-01T01:49:46.070Z,94.30
2022-08-01T01:52:15.589Z,94.20
2022-08-01T01:54:49.414Z,94.30
2022-08-01T01:57:18.770Z,94.40
2022-08-01T01:59:50.053Z,94.60
2022-08-01T02:02:19.824Z,94.60
2022-08-01T02:04:49.530Z,94.60
2022-08-01T02:07:23.725Z,94.60
2022-08-01T02:09:53.639Z,94.50
2022-08-01T02:12:22.570Z,94.40
2022-08-01T02:14:54.479Z,94.30
2022-08-01T02:17:25.430Z,94.20
2022-08-01T02:19:54.598Z,94.50
2022-08-01T02:22:29.861Z,94.30
2022-08-01T02:25:04.628Z,94.30
2022-08-01T02:27:40.042Z,94.20
2022-08-01T02:30:12.550Z,94.30
2022-08-01T02:32:45.014Z,94.10
2022-08-01T02:35:19.053Z,94.40
2022-08-01T02:37:49.340Z,94.30
2022-08-01T02:40:19.371Z,94.40
2022-08-01T02:42:49.895Z,94.40
2022-08-01T02:45:20.213Z,94.50
2022-08-01T02:47:50.116Z,94.60
2022-08-01T02:50:21.259Z,94.60
2022-08-01T02:52:51.616Z,94.70
2022-08-01T02:55:21.824Z,94.80
2022-08-01T02:57:52.565Z,94.70
2022-08-01T03:00:27.470Z,94.90
2022-08-01T03:02:56.946Z,94.80
2022-08-01T03:05:26.839Z,94.60
2022-08-01T03:08:02.514Z,94.80
2022-08-01T03:10:33.402Z,95.10
2022-08-01T03:13:03.229Z,94.90
2022-08-01T03:15:35.785Z,94.70
2022-08-01T03:18:06.790Z,94.90
2022-08-01T03:20:35.924Z,94.90
2022-08-01T03:23:07.330Z,95.00
2022-08-01T03:25:38.831Z,94.90
2022-08-01T03:28:10.104Z,94.90
2022-08-01T03:30:41.619Z,94.90
2022-08-01T03:33:10.764Z,95.00
2022-08-01T03:35:47.859Z,94.80
2022-08-01T03:38:21.004Z,95.00
2022-08-01T03:40:54.103Z,95.10
2022-08-01T03:43:32.640Z,95.30
2022-08-01T03:46:08.450Z,95.50
2022-08-01T03:48:41.646Z,95.50
2022-08-01T03:51:10.917Z,95.60
2022-08-01T03:53:42.509Z,95.70
2022-08-01T03:56:12.317Z,95.70
2022-08-01T03:58:42.849Z,95.80
2022-08-01T04:01:15.274Z,95.90
2022-08-01T04:03:44.076Z,96.00
2022-08-01T04:06:14.188Z,96.30
2022-08-01T04:08:42.689Z,96.20
2022-08-01T04:11:11.734Z,96.20
2022-08-01T04:13:39.707Z,96.30
2022-08-01T04:16:13.757Z,96.50
2022-08-01T04:18:41.811Z,96.60
2022-08-01T04:21:10.301Z,96.80
2022-08-01T04:23:40.392Z,97.10
2022-08-01T04:26:11.304Z,96.90
2022-08-01T04:28:41.714Z,96.60
2022-08-01T04:31:12.437Z,96.80
2022-08-01T04:33:46.269Z,96.60
2022-08-01T04:36:16.178Z,96.60
2022-08-01T04:38:47.635Z,96.90
2022-08-01T04:41:18.274Z,96.80
2022-08-01T04:43:47.618Z,96.90
2022-08-01T04:46:16.201Z,96.80
2022-08-01T04:48:46.712Z,96.70
2022-08-01T04:51:17.263Z,96.90
2022-08-01T04:53:46.906Z,96.60
2022-08-01T04:56:15.291Z,96.60
2022-08-01T04:58:43.792Z,96.60
2022-08-01T05:01:12.611Z,96.50
2022-08-01T05:03:40.730Z,96.50
2022-08-01T05:06:10.156Z,96.50
2022-08-01T05:08:38.071Z,96.40
2022-08-01T05:11:06.495Z,96.30
2022-08-01T05:13:34.425Z,96.20
2022-08-01T05:16:04.570Z,96.40
2022-08-01T05:18:32.625Z,96.20
2022-08-01T05:21:00.785Z,96.00
2022-08-01T05:23:42.682Z,96.10
2022-08-01T05:26:11.658Z,96.20
2022-08-01T05:28:42.973Z,95.90
2022-08-01T05:31:10.994Z,95.70
2022-08-01T05:33:38.918Z,95.80
2022-08-01T05:36:07.484Z,95.80
2022-08-01T05:38:36.820Z,95.80
2022-08-01T05:41:05.007Z,95.70
2022-08-01T05:43:33.034Z,95.60
2022-08-01T05:46:01.956Z,95.50
2022-08-01T05:48:29.884Z,95.40
2022-08-01T05:50:59.032Z,95.30
2022-08-01T05:53:27.557Z,95.30
2022-08-01T05:55:56.949Z,95.30
2022-08-01T05:58:24.915Z,95.10
2022-08-01T06:00:52.989Z,95.00
2022-08-01T06:03:21.253Z,94.90
2022-08-01T06:05:49.298Z,94.80
2022-08-01T06:08:17.610Z,94.60
2022-08-01T06:10:45.627Z,94.50
2022-08-01T06:13:15.066Z,94.20
2022-08-01T06:15:43.033Z,94.30
2022-08-01T06:18:11.178Z,93.90
2022-08-01T06:20:39.322Z,93.80
2022-08-01T06:23:12.059Z,93.90
2022-08-01T06:25:56.166Z,93.60
2022-08-01T06:28:26.281Z,93.40
2022-08-01T06:30:54.557Z,93.40
2022-08-01T06:33:22.545Z,93.20
2022-08-01T06:35:50.259Z,93.10
2022-08-01T06:38:18.353Z,92.90
2022-08-01T06:40:46.233Z,92.90
2022-08-01T06:43:14.249Z,92.80
2022-08-01T06:45:43.651Z,92.40
2022-08-01T06:48:12.398Z,92.50
2022-08-01T06:50:40.313Z,92.20
2022-08-01T06:53:08.292Z,92.30
2022-08-01T06:55:36.410Z,92.00
2022-08-01T06:58:04.591Z,91.90
2022-08-01T07:00:32.710Z,91.20
2022-08-01T07:03:02.208Z,90.90
2022-08-01T07:05:32.013Z,90.60
2022-08-01T07:08:00.389Z,90.50
2022-08-01T07:10:28.381Z,90.00
2022-08-01T07:12:56.297Z,89.20
2022-08-01T07:15:27.579Z,88.50
2022-08-01T07:17:56.171Z,89.10
2022-08-01T07:20:25.498Z,88.50
2022-08-01T07:22:54.425Z,88.50
2022-08-01T07:25:24.778Z,89.10
2022-08-01T07:27:52.824Z,89.20
2022-08-01T07:30:20.743Z,90.10
2022-08-01T07:32:48.774Z,90.20
2022-08-01T07:35:16.984Z,90.60
2022-08-01T07:37:49.198Z,90.10
2022-08-01T07:40:19.262Z,90.30
2022-08-01T07:42:47.437Z,90.10
2022-08-01T07:45:15.874Z,90.10
2022-08-01T07:47:44.161Z,89.40
2022-08-01T07:50:13.502Z,87.40
2022-08-01T07:52:41.901Z,86.30
2022-08-01T07:55:16.281Z,85.80
2022-08-01T07:57:44.853Z,84.10
2022-08-01T08:00:14.035Z,82.00
2022-08-01T08:02:42.079Z,77.70
2022-08-01T08:05:10.724Z,75.30
2022-08-01T08:07:40.289Z,73.80
2022-08-01T08:10:09.052Z,72.40
2022-08-01T08:12:38.667Z,71.20
2022-08-01T08:15:07.720Z,71.70
2022-08-01T08:17:36.933Z,72.30
2022-08-01T08:20:09.275Z,73.50
2022-08-01T08:22:38.403Z,73.30
2022-08-01T08:25:07.842Z,73.50
2022-08-01T08:27:37.497Z,72.80
2022-08-01T08:30:09.402Z,71.60
2022-08-01T08:32:37.708Z,72.20
2022-08-01T08:35:07.048Z,71.80
2022-08-01T08:37:37.916Z,71.20
2022-08-01T08:40:08.618Z,70.70
2022-08-01T08:42:37.034Z,69.20
2022-08-01T08:45:05.423Z,69.20
2022-08-01T08:47:43.365Z,66.10
2022-08-01T08:50:11.581Z,64.10
2022-08-01T08:52:42.068Z,64.30
2022-08-01T08:55:11.907Z,64.60
2022-08-01T08:57:42.535Z,63.00
2022-08-01T09:00:12.707Z,62.70
2022-08-01T09:02:45.298Z,61.70
2022-08-01T09:05:17.570Z,62.30
2022-08-01T09:07:47.743Z,63.10
2022-08-01T09:10:15.935Z,63.60
2022-08-01T09:13:05.288Z,62.90
2022-08-01T09:15:45.597Z,63.80
2022-08-01T09:18:35.826Z,65.80
2022-08-01T09:21:11.682Z,66.30
2022-08-01T09:23:54.120Z,66.20
2022-08-01T09:26:31.300Z,66.60
2022-08-01T09:29:00.344Z,64.70
2022-08-01T09:31:38.224Z,63.70
2022-08-01T09:34:09.343Z,63.40
2022-08-01T09:36:54.411Z,62.40
2022-08-01T09:39:24.456Z,62.20
2022-08-01T09:41:53.230Z,61.50
2022-08-01T09:44:42.264Z,61.80
2022-08-01T09:47:11.629Z,60.00
2022-08-01T09:49:50.496Z,58.20
2022-08-01T09:52:26.109Z,55.30
2022-08-01T09:54:58.726Z,53.80
2022-08-01T09:57:27.522Z,52.40
2022-08-01T09:59:59.062Z,50.40
2022-08-01T10:02:31.797Z,48.10
2022-08-01T10:05:07.361Z,47.80
2022-08-01T10:07:43.930Z,47.00
2022-08-01T10:10:14.568Z,46.00
2022-08-01T10:12:45.685Z,45.80
2022-08-01T10:15:17.858Z,44.90
2022-08-01T10:17:52.059Z,45.20
2022-08-01T10:20:30.633Z,44.50
2022-08-01T10:23:05.975Z,45.10
2022-08-01T10:25:43.177Z,45.00
2022-08-01T10:28:24.209Z,45.00
2022-08-01T10:30:53.304Z,44.70
2022-08-01T10:33:50.953Z,43.70
2022-08-01T10:36:13.960Z,43.30
2022-08-01T10:38:42.703Z,43.50
2022-08-01T10:41:15.978Z,42.70
2022-08-01T10:43:45.493Z,43.00
2022-08-01T10:46:14.169Z,43.40
2022-08-01T10:48:49.347Z,43.20
2022-08-01T10:51:51.613Z,42.10
2022-08-01T10:54:12.435Z,42.30
2022-08-01T10:56:44.652Z,43.10
2022-08-01T10:59:17.647Z,42.80
2022-08-01T11:02:06.928Z,44.80
2022-08-01T11:04:51.646Z,44.20
2022-08-01T11:07:25.601Z,44.90
2022-08-01T11:10:14.627Z,44.30
2022-08-01T11:12:43.855Z,44.40
2022-08-01T11:15:36.264Z,44.90
2022-08-01T11:18:37.633Z,44.80
2022-08-01T11:21:57.764Z,44.60
2022-08-01T11:23:55.491Z,45.90
2022-08-01T11:26:29.001Z,48.40
2022-08-01T11:29:21.961Z,49.70
2022-08-01T11:31:50.968Z,50.90
2022-08-01T11:34:19.173Z,52.50
2022-08-01T11:37:03.725Z,53.70
2022-08-01T11:39:38.285Z,54.50
2022-08-01T11:42:22.659Z,55.10
2022-08-01T11:44:52.089Z,56.40
2022-08-01T11:47:21.290Z,57.00
2022-08-01T11:49:56.039Z,56.60
2022-08-01T11:52:28.975Z,57.00
2022-08-01T11:55:00.143Z,57.30
2022-08-01T11:57:34.213Z,57.40
2022-08-01T12:00:08.502Z,57.60
2022-08-01T12:02:37.111Z,57.80
2022-08-01T12:05:08.411Z,56.70
2022-08-01T12:07:41.170Z,56.90
2022-08-01T12:10:13.428Z,57.30
2022-08-01T12:12:45.659Z,56.70
2022-08-01T12:15:14.820Z,56.70
2022-08-01T12:17:47.115Z,56.20
2022-08-01T12:20:30.382Z,56.20
2022-08-01T12:22:59.890Z,56.40
2022-08-01T12:25:29.500Z,56.70
2022-08-01T12:28:01.235Z,57.40
2022-08-01T12:30:31.726Z,56.30
2022-08-01T12:33:00.291Z,56.40
2022-08-01T12:35:30.221Z,56.30
2022-08-01T12:38:00.322Z,56.20
2022-08-01T12:40:31.628Z,55.90
2022-08-01T12:43:03.051Z,56.20
2022-08-01T12:45:35.326Z,56.20
2022-08-01T12:48:04.683Z,56.40
2022-08-01T12:50:34.497Z,56.60
2022-08-01T12:53:04.191Z,56.80
2022-08-01T12:55:58.285Z,56.50
2022-08-01T12:58:33.654Z,56.40
2022-08-01T13:01:06.668Z,55.90
2022-08-01T13:03:36.467Z,55.60
2022-08-01T13:06:13.692Z,55.90
2022-08-01T13:08:41.934Z,56.10
2022-08-01T13:11:16.882Z,55.70
2022-08-01T13:13:48.024Z,55.70
2022-08-01T13:16:26.004Z,56.30
2022-08-01T13:19:03.114Z,57.40
2022-08-01T13:21:52.070Z,60.80
2022-08-01T13:24:27.050Z,66.10
2022-08-01T13:27:01.396Z,67.40
2022-08-01T13:29:34.577Z,68.90
2022-08-01T13:32:13.672Z,72.50
2022-08-01T13:35:03.953Z,73.90
2022-08-01T13:37:32.259Z,71.40
2022-08-01T13:40:00.981Z,71.20
2022-08-01T13:42:31.257Z,70.50
2022-08-01T13:44:59.288Z,70.60
2022-08-01T13:47:31.801Z,68.20
2022-08-01T13:50:01.633Z,66.60
2022-08-01T13:52:30.648Z,65.20
2022-08-01T13:54:58.769Z,65.20
2022-08-01T13:57:36.973Z,64.00
2022-08-01T14:00:09.515Z,63.80
2022-08-01T14:02:37.940Z,64.10
2022-08-01T14:05:06.807Z,64.40
2022-08-01T14:07:35.479Z,64.90
2022-08-01T14:10:19.884Z,65.00
2022-08-01T14:12:48.880Z,64.60
2022-08-01T14:15:38.603Z,65.50
2022-08-01T14:18:08.073Z,69.50
2022-08-01T14:20:39.273Z,76.90
2022-08-01T14:23:09.684Z,79.10
2022-08-01T14:26:01.696Z,80.50
2022-08-01T14:28:28.806Z,79.60
2022-08-01T14:30:59.798Z,82.20
2022-08-01T14:33:28.339Z,83.50
2022-08-01T14:36:06.135Z,80.60
2022-08-01T14:38:48.095Z,79.90
2022-08-01T14:41:17.608Z,79.70
2022-08-01T14:43:47.764Z,80.00
2022-08-01T14:46:20.583Z,79.90
2022-08-01T14:48:48.666Z,79.40
2022-08-01T14:51:17.261Z,78.90
2022-08-01T14:53:46.901Z,78.80
2022-08-01T14:56:19.307Z,78.60
2022-08-01T14:58:47.298Z,78.80
2022-08-01T15:01:19.163Z,78.30
2022-08-01T15:03:49.161Z,78.40
2022-08-01T15:06:17.295Z,78.40
2022-08-01T15:08:45.256Z,79.20
2022-08-01T15:11:13.609Z,80.20
2022-08-01T15:13:42.816Z,80.30
2022-08-01T15:16:11.877Z,82.30
2022-08-01T15:18:42.963Z,83.90
2022-08-01T15:21:17.266Z,84.00
2022-08-01T15:23:54.678Z,82.50
2022-08-01T15:26:24.032Z,80.20
2022-08-01T15:28:54.705Z,80.40
2022-08-01T15:31:23.848Z,83.20
2022-08-01T15:34:02.970Z,86.40
2022-08-01T15:36:33.226Z,87.80
2022-08-01T15:39:02.618Z,88.60
2022-08-01T15:41:33.139Z,90.40
2022-08-01T15:44:02.621Z,91.20
2022-08-01T15:46:32.373Z,91.90
2022-08-01T15:49:06.974Z,92.40
2022-08-01T15:51:36.189Z,92.40
2022-08-01T15:54:11.570Z,92.80
2022-08-01T15:56:42.529Z,93.00
2022-08-01T15:59:10.780Z,93.10
2022-08-01T16:01:38.710Z,93.20
2022-08-01T16:04:08.629Z,93.60
2022-08-01T16:06:37.691Z,94.00
2022-08-01T16:09:06.470Z,94.40
2022-08-01T16:11:35.820Z,94.70
2022-08-01T16:14:06.659Z,94.80
2022-08-01T16:16:34.759Z,95.10
2022-08-01T16:19:02.672Z,95.10
2022-08-01T16:21:32.202Z,95.80
2022-08-01T16:24:00.254Z,97.80
2022-08-01T16:26:28.422Z,97.60
2022-08-01T16:28:57.915Z,97.30
2022-08-01T16:31:41.542Z,96.90
2022-08-01T16:34:15.367Z,96.50
2022-08-01T16:36:44.960Z,96.00
2022-08-01T16:39:13.009Z,95.80
2022-08-01T16:41:41.071Z,95.90
2022-08-01T16:44:09.877Z,95.50
2022-08-01T16:46:37.940Z,94.60
2022-08-01T16:49:06.684Z,94.20
2022-08-01T16:51:40.725Z,94.00
2022-08-01T16:54:25.534Z,94.00
2022-08-01T16:56:54.431Z,93.70
2022-08-01T16:59:24.168Z,94.20
2022-08-01T17:01:59.536Z,93.60
2022-08-01T17:04:30.251Z,93.40
2022-08-01T17:06:58.351Z,93.20
2022-08-01T17:09:27.704Z,93.00
2022-08-01T17:11:55.612Z,92.90
2022-08-01T17:14:23.724Z,92.30
2022-08-01T17:16:51.691Z,92.50
2022-08-01T17:19:19.811Z,92.50
2022-08-01T17:21:54.932Z,92.60
2022-08-01T17:24:22.820Z,92.20
2022-08-01T17:26:52.354Z,92.10
2022-08-01T17:29:20.401Z,92.10
2022-08-01T17:31:48.668Z,92.10
2022-08-01T17:34:16.855Z,91.60
2022-08-01T17:36:44.862Z,91.10
2022-08-01T17:39:13.538Z,91.10
2022-08-01T17:41:41.782Z,91.20
2022-08-01T17:44:13.788Z,91.40
2022-08-01T17:46:42.338Z,91.40
2022-08-01T17:49:10.584Z,91.40
2022-08-01T17:51:38.676Z,92.00
2022-08-01T17:54:07.115Z,91.60
2022-08-01T17:56:39.281Z,91.60
2022-08-01T17:59:10.503Z,91.70
2022-08-01T18:01:38.551Z,91.80
2022-08-01T18:04:13.557Z,92.20
2022-08-01T18:06:58.453Z,92.40
2022-08-01T18:09:32.725Z,91.80
2022-08-01T18:12:02.108Z,92.00
2022-08-01T18:14:40.611Z,92.10
2022-08-01T18:17:11.332Z,91.90
2022-08-01T18:19:40.335Z,92.00
2022-08-01T18:22:25.682Z,92.00
2022-08-01T18:24:57.667Z,92.10
2022-08-01T18:27:25.742Z,92.20
2022-08-01T18:30:15.277Z,92.00
2022-08-01T18:32:43.656Z,92.20
2022-08-01T18:35:14.469Z,92.10
2022-08-01T18:37:54.426Z,93.20
2022-08-01T18:40:23.695Z,94.40
2022-08-01T18:42:52.489Z,94.50
2022-08-01T18:45:22.373Z,94.70
2022-08-01T18:47:50.508Z,94.40
2022-08-01T18:50:19.951Z,94.60
2022-08-01T18:52:48.839Z,94.70
2022-08-01T18:55:18.391Z,94.30
2022-08-01T18:57:46.412Z,94.50
2022-08-01T19:00:15.230Z,94.10
2022-08-01T19:02:44.794Z,95.20
2022-08-01T19:05:12.985Z,95.80
2022-08-01T19:08:05.337Z,99.30
2022-08-01T19:10:29.090Z,99.90
2022-08-01T19:12:57.037Z,99.90
2022-08-01T19:15:26.375Z,99.90
2022-08-01T19:17:55.742Z,99.90
2022-08-01T19:20:23.851Z,99.90
2022-08-01T19:22:51.934Z,99.90
2022-08-01T19:25:19.918Z,99.90
2022-08-01T19:27:50.223Z,99.90
2022-08-01T19:30:19.815Z,99.90
2022-08-01T19:32:48.803Z,99.90
2022-08-01T19:35:18.411Z,99.90
2022-08-01T19:37:47.764Z,99.90
2022-08-01T19:40:27.547Z,99.90
2022-08-01T19:42:57.456Z,99.90
2022-08-01T19:45:29.812Z,99.90
2022-08-01T19:47:58.251Z,99.90
2022-08-01T19:50:29.281Z,99.90
2022-08-01T19:52:58.982Z,99.90
2022-08-01T19:55:28.685Z,99.90
2022-08-01T19:58:25.378Z,99.90
2022-08-01T20:00:48.352Z,99.90
2022-08-01T20:03:19.396Z,99.90
2022-08-01T20:05:48.833Z,99.90
2022-08-01T20:08:18.212Z,99.90
2022-08-01T20:10:47.643Z,99.90
2022-08-01T20:13:15.977Z,99.90
2022-08-01T20:15:45.746Z,99.90
2022-08-01T20:18:13.741Z,99.90
2022-08-01T20:20:41.585Z,99.90
2022-08-01T20:23:18.225Z,99.90
2022-08-01T20:25:49.870Z,99.90
2022-08-01T20:28:22.722Z,99.90
2022-08-01T20:30:56.418Z,99.90
2022-08-01T20:33:24.692Z,99.90
2022-08-01T20:35:54.289Z,99.90
2022-08-01T20:38:27.710Z,99.90
2022-08-01T20:40:58.816Z,99.90
2022-08-01T20:43:27.972Z,99.90
2022-08-01T20:45:57.127Z,99.90
2022-08-01T20:48:27.400Z,99.90
2022-08-01T20:51:12.869Z,99.90
2022-08-01T20:53:44.849Z,99.90
2022-08-01T20:56:18.606Z,99.90
2022-08-01T20:58:58.590Z,99.90
2022-08-01T21:01:29.629Z,99.90
2022-08-01T21:04:14.215Z,99.90
2022-08-01T21:06:47.219Z,99.90
2022-08-01T21:09:21.512Z,99.90
2022-08-01T21:11:52.666Z,99.90
2022-08-01T21:14:22.494Z,99.90
2022-08-01T21:16:58.359Z,99.90
2022-08-01T21:19:28.852Z,99.90
2022-08-01T21:22:09.656Z,99.90
2022-08-01T21:24:58.431Z,99.90
2022-08-01T21:27:33.034Z,99.90
2022-08-01T21:30:04.137Z,99.90
2022-08-01T21:32:34.141Z,99.90
2022-08-01T21:35:03.435Z,99.90
2022-08-01T21:37:32.313Z,99.90
2022-08-01T21:40:09.492Z,99.90
2022-08-01T21:42:40.036Z,99.90
2022-08-01T21:45:10.665Z,99.90
2022-08-01T21:47:39.015Z,99.90
2022-08-01T21:50:09.470Z,99.90
2022-08-01T21:52:45.191Z,99.90
2022-08-01T21:55:34.978Z,99.90
2022-08-01T21:58:18.339Z,99.90
2022-08-01T22:00:53.146Z,99.90
2022-08-01T22:03:26.100Z,99.90
2022-08-01T22:05:55.948Z,99.90
2022-08-01T22:08:30.722Z,99.90
2022-08-01T22:11:06.095Z,99.90
2022-08-01T22:13:35.216Z,99.90
2022-08-01T22:16:04.872Z,99.90
2022-08-01T22:18:34.310Z,99.90
2022-08-01T22:21:03.679Z,99.90
2022-08-01T22:23:38.180Z,99.90
2022-08-01T22:26:10.721Z,99.90
2022-08-01T22:28:40.605Z,99.90
2022-08-01T22:31:08.678Z,99.90
2022-08-01T22:33:38.129Z,99.90
2022-08-01T22:36:07.875Z,99.90
2022-08-01T22:38:36.569Z,99.90
2022-08-01T22:41:07.511Z,99.90
2022-08-01T22:43:42.913Z,99.90
2022-08-01T22:46:26.162Z,99.90
2022-08-01T22:49:00.795Z,99.90
2022-08-01T22:51:37.631Z,99.90
2022-08-01T22:54:09.905Z,99.90
2022-08-01T22:56:48.323Z,99.90
2022-08-01T22:59:21.273Z,99.90
2022-08-01T23:01:51.026Z,99.90
2022-08-01T23:04:33.276Z,99.90
2022-08-01T23:07:05.918Z,99.90
2022-08-01T23:09:52.934Z,99.90
2022-08-01T23:12:24.381Z,99.90
2022-08-01T23:14:55.397Z,99.90
2022-08-01T23:17:27.608Z,99.90
2022-08-01T23:19:58.624Z,99.90
2022-08-01T23:22:30.710Z,99.90
2022-08-01T23:25:05.232Z,99.90
2022-08-01T23:27:51.502Z,99.90
2022-08-01T23:30:28.526Z,99.90
2022-08-01T23:32:56.694Z,99.90
2022-08-01T23:35:25.101Z,99.90
2022-08-01T23:37:55.860Z,99.90
2022-08-01T23:40:30.398Z,99.90
2022-08-01T23:42:58.475Z,99.90
2022-08-01T23:45:27.888Z,99.90
2022-08-01T23:47:56.234Z,99.90
2022-08-01T23:50:24.609Z,99.90
2022-08-01T23:52:56.739Z,99.90
2022-08-01T23:55:36.746Z,99.90
2022-08-01T23:58:06.246Z,99.90
